sensor_id;sensor_type;location;lat;lon;timestamp;pressure;altitude;pressure_sealevel;temperature;humidity
31005;BME280;17676;52.254;4.490;2023-07-16T00:01:45;100587.72;;;19.10;100.00
31005;BME280;17676;52.254;4.490;2023-07-16T00:04:11;100578.13;;;19.03;100.00
31005;BME280;17676;52.254;4.490;2023-07-16T00:06:36;100578.13;;;19.03;100.00
31005;BME280;17676;52.254;4.490;2023-07-16T00:09:01;100576.47;;;18.97;100.00
31005;BME280;17676;52.254;4.490;2023-07-16T00:11:28;100573.16;;;18.95;100.00
31005;BME280;17676;52.254;4.490;2023-07-16T00:13:53;100576.69;;;18.90;100.00
31005;BME280;17676;52.254;4.490;2023-07-16T00:16:19;100573.69;;;18.87;100.00
31005;BME280;17676;52.254;4.490;2023-07-16T00:18:44;100573.41;;;18.83;100.00
31005;BME280;17676;52.254;4.490;2023-07-16T00:21:10;100579.16;;;18.82;100.00
31005;BME280;17676;52.254;4.490;2023-07-16T00:23:36;100577.50;;;18.81;100.00
31005;BME280;17676;52.254;4.490;2023-07-16T00:26:01;100568.38;;;18.65;100.00
31005;BME280;17676;52.254;4.490;2023-07-16T00:28:26;100577.97;;;18.68;100.00
31005;BME280;17676;52.254;4.490;2023-07-16T00:30:52;100576.34;;;18.67;100.00
31005;BME280;17676;52.254;4.490;2023-07-16T00:33:17;100577.44;;;18.61;100.00
31005;BME280;17676;52.254;4.490;2023-07-16T00:35:49;100575.28;;;18.73;100.00
31005;BME280;17676;52.254;4.490;2023-07-16T00:38:18;100571.44;;;18.74;100.00
31005;BME280;17676;52.254;4.490;2023-07-16T00:40:45;100571.97;;;18.71;100.00
31005;BME280;17676;52.254;4.490;2023-07-16T00:43:10;100566.22;;;18.72;100.00
31005;BME280;17676;52.254;4.490;2023-07-16T00:45:37;100560.75;;;18.77;100.00
31005;BME280;17676;52.254;4.490;2023-07-16T00:48:04;100573.34;;;18.73;100.00
31005;BME280;17676;52.254;4.490;2023-07-16T00:50:30;100601.34;;;18.75;100.00
31005;BME280;17676;52.254;4.490;2023-07-16T00:53:00;100592.16;;;18.45;100.00
31005;BME280;17676;52.254;4.490;2023-07-16T00:55:25;100596.16;;;17.96;100.00
31005;BME280;17676;52.254;4.490;2023-07-16T00:57:51;100604.16;;;17.71;100.00
31005;BME280;17676;52.254;4.490;2023-07-16T01:00:17;100607.28;;;17.53;100.00
31005;BME280;17676;52.254;4.490;2023-07-16T01:02:43;100609.78;;;17.54;100.00
31005;BME280;17676;52.254;4.490;2023-07-16T01:05:08;100614.38;;;17.49;100.00
31005;BME280;17676;52.254;4.490;2023-07-16T01:07:35;100608.28;;;17.42;100.00
31005;BME280;17676;52.254;4.490;2023-07-16T01:10:02;100613.50;;;17.43;100.00
31005;BME280;17676;52.254;4.490;2023-07-16T01:12:30;100599.75;;;17.38;100.00
31005;BME280;17676;52.254;4.490;2023-07-16T01:14:56;100603.28;;;17.39;100.00
31005;BME280;17676;52.254;4.490;2023-07-16T01:17:23;100600.50;;;17.34;100.00
31005;BME280;17676;52.254;4.490;2023-07-16T01:19:48;100613.88;;;17.52;100.00
31005;BME280;17676;52.254;4.490;2023-07-16T01:25:22;100613.88;;;17.52;100.00
31005;BME280;17676;52.254;4.490;2023-07-16T01:30:32;100596.81;;;17.45;100.00
31005;BME280;17676;52.254;4.490;2023-07-16T01:32:58;100605.72;;;17.62;100.00
31005;BME280;17676;52.254;4.490;2023-07-16T01:35:26;100609.34;;;17.67;100.00
31005;BME280;17676;52.254;4.490;2023-07-16T01:37:52;100617.38;;;17.79;100.00
31005;BME280;17676;52.254;4.490;2023-07-16T01:40:17;100599.88;;;17.80;100.00
31005;BME280;17676;52.254;4.490;2023-07-16T01:42:42;100596.56;;;17.78;100.00
31005;BME280;17676;52.254;4.490;2023-07-16T01:45:08;100608.16;;;17.90;100.00
31005;BME280;17676;52.254;4.490;2023-07-16T01:47:45;100600.25;;;17.93;100.00
31005;BME280;17676;52.254;4.490;2023-07-16T01:50:14;100608.53;;;17.98;100.00
31005;BME280;17676;52.254;4.490;2023-07-16T01:52:39;100614.84;;;18.04;100.00
31005;BME280;17676;52.254;4.490;2023-07-16T01:55:05;100601.94;;;17.99;100.00
31005;BME280;17676;52.254;4.490;2023-07-16T01:57:31;100602.75;;;18.00;100.00
31005;BME280;17676;52.254;4.490;2023-07-16T01:59:56;100597.81;;;17.97;100.00
31005;BME280;17676;52.254;4.490;2023-07-16T02:02:22;100609.06;;;18.00;100.00
31005;BME280;17676;52.254;4.490;2023-07-16T02:04:47;100608.22;;;18.00;100.00
31005;BME280;17676;52.254;4.490;2023-07-16T02:07:13;100597.81;;;17.97;100.00
31005;BME280;17676;52.254;4.490;2023-07-16T02:09:38;100609.25;;;17.89;100.00
31005;BME280;17676;52.254;4.490;2023-07-16T02:12:05;100607.06;;;17.91;100.00
31005;BME280;17676;52.254;4.490;2023-07-16T02:14:31;100612.50;;;17.86;100.00
31005;BME280;17676;52.254;4.490;2023-07-16T02:16:57;100599.81;;;17.75;100.00
31005;BME280;17676;52.254;4.490;2023-07-16T02:19:22;100608.63;;;17.77;100.00
31005;BME280;17676;52.254;4.490;2023-07-16T02:21:48;100607.25;;;17.79;100.00
31005;BME280;17676;52.254;4.490;2023-07-16T02:24:13;100611.38;;;17.82;100.00
31005;BME280;17676;52.254;4.490;2023-07-16T02:26:39;100620.25;;;17.94;100.00
31005;BME280;17676;52.254;4.490;2023-07-16T02:29:05;100596.53;;;17.73;100.00
31005;BME280;17676;52.254;4.490;2023-07-16T02:31:34;100607.69;;;17.40;100.00
31005;BME280;17676;52.254;4.490;2023-07-16T02:33:59;100619.66;;;17.34;100.00
31005;BME280;17676;52.254;4.490;2023-07-16T02:36:24;100614.59;;;17.21;100.00
31005;BME280;17676;52.254;4.490;2023-07-16T02:38:50;100622.22;;;17.19;100.00
31005;BME280;17676;52.254;4.490;2023-07-16T02:41:15;100628.72;;;17.13;100.00
31005;BME280;17676;52.254;4.490;2023-07-16T02:43:41;100626.44;;;17.05;100.00
31005;BME280;17676;52.254;4.490;2023-07-16T02:46:06;100624.91;;;17.14;100.00
31005;BME280;17676;52.254;4.490;2023-07-16T02:48:32;100621.41;;;17.18;100.00
31005;BME280;17676;52.254;4.490;2023-07-16T02:50:57;100639.22;;;17.21;100.00
31005;BME280;17676;52.254;4.490;2023-07-16T02:53:23;100622.09;;;17.30;100.00
31005;BME280;17676;52.254;4.490;2023-07-16T02:55:48;100621.41;;;17.18;100.00
31005;BME280;17676;52.254;4.490;2023-07-16T02:58:14;100628.31;;;17.26;100.00
31005;BME280;17676;52.254;4.490;2023-07-16T03:00:39;100638.38;;;17.20;100.00
31005;BME280;17676;52.254;4.490;2023-07-16T03:03:04;100630.50;;;17.24;100.00
31005;BME280;17676;52.254;4.490;2023-07-16T03:05:30;100634.03;;;17.24;100.00
31005;BME280;17676;52.254;4.490;2023-07-16T03:07:55;100634.25;;;17.18;100.00
31005;BME280;17676;52.254;4.490;2023-07-16T03:10:21;100634.84;;;17.20;100.00
31005;BME280;17676;52.254;4.490;2023-07-16T03:12:46;100641.44;;;17.24;100.00
31005;BME280;17676;52.254;4.490;2023-07-16T03:15:12;100631.94;;;17.31;100.00
31005;BME280;17676;52.254;4.490;2023-07-16T03:17:38;100636.56;;;17.31;100.00
31005;BME280;17676;52.254;4.490;2023-07-16T03:20:03;100647.84;;;17.34;100.00
31005;BME280;17676;52.254;4.490;2023-07-16T03:22:30;100658.63;;;17.41;100.00
31005;BME280;17676;52.254;4.490;2023-07-16T03:24:56;100657.56;;;17.47;100.00
31005;BME280;17676;52.254;4.490;2023-07-16T03:27:21;100676.09;;;17.40;100.00
31005;BME280;17676;52.254;4.490;2023-07-16T03:29:46;100668.25;;;17.27;100.00
31005;BME280;17676;52.254;4.490;2023-07-16T03:32:12;100680.34;;;17.31;100.00
31005;BME280;17676;52.254;4.490;2023-07-16T03:34:37;100684.19;;;17.30;100.00
31005;BME280;17676;52.254;4.490;2023-07-16T03:37:03;100678.84;;;17.18;100.00
31005;BME280;17676;52.254;4.490;2023-07-16T03:39:28;100684.06;;;17.20;100.00
31005;BME280;17676;52.254;4.490;2023-07-16T03:41:54;100685.56;;;17.11;100.00
31005;BME280;17676;52.254;4.490;2023-07-16T03:44:19;100669.50;;;16.93;100.00
31005;BME280;17676;52.254;4.490;2023-07-16T03:46:44;100672.94;;;17.05;100.00
31005;BME280;17676;52.254;4.490;2023-07-16T03:49:10;100679.81;;;17.07;100.00
31005;BME280;17676;52.254;4.490;2023-07-16T03:51:36;100682.94;;;17.16;100.00
31005;BME280;17676;52.254;4.490;2023-07-16T03:54:01;100686.41;;;17.11;100.00
31005;BME280;17676;52.254;4.490;2023-07-16T03:56:27;100692.13;;;17.10;100.00
31005;BME280;17676;52.254;4.490;2023-07-16T03:58:52;100692.13;;;17.10;100.00
31005;BME280;17676;52.254;4.490;2023-07-16T04:01:18;100682.53;;;17.07;100.00
31005;BME280;17676;52.254;4.490;2023-07-16T04:03:43;100695.75;;;17.15;100.00
31005;BME280;17676;52.254;4.490;2023-07-16T04:06:09;100693.53;;;17.12;100.00
31005;BME280;17676;52.254;4.490;2023-07-16T04:08:35;100686.41;;;17.11;100.00
31005;BME280;17676;52.254;4.490;2023-07-16T04:11:02;100701.50;;;17.14;100.00
31005;BME280;17676;52.254;4.490;2023-07-16T04:13:28;100697.66;;;17.15;100.00
31005;BME280;17676;52.254;4.490;2023-07-16T04:15:53;100695.47;;;17.12;100.00
31005;BME280;17676;52.254;4.490;2023-07-16T04:18:21;100702.63;;;17.18;100.00
31005;BME280;17676;52.254;4.490;2023-07-16T04:20:46;100720.19;;;17.22;100.00
31005;BME280;17676;52.254;4.490;2023-07-16T04:23:12;100703.28;;;17.25;100.00
31005;BME280;17676;52.254;4.490;2023-07-16T04:25:37;100710.09;;;17.22;100.00
31005;BME280;17676;52.254;4.490;2023-07-16T04:28:03;100710.13;;;17.06;100.00
31005;BME280;17676;52.254;4.490;2023-07-16T04:30:29;100706.00;;;17.03;100.00
31005;BME280;17676;52.254;4.490;2023-07-16T04:32:55;100709.31;;;17.05;100.00
31005;BME280;17676;52.254;4.490;2023-07-16T04:35:20;100715.75;;;17.16;100.00
31005;BME280;17676;52.254;4.490;2023-07-16T04:37:45;100717.94;;;17.19;100.00
31005;BME280;17676;52.254;4.490;2023-07-16T04:40:11;100715.22;;;17.19;100.00
31005;BME280;17676;52.254;4.490;2023-07-16T04:42:36;100720.19;;;17.22;100.00
31005;BME280;17676;52.254;4.490;2023-07-16T04:45:02;100724.50;;;17.18;100.00
31005;BME280;17676;52.254;4.490;2023-07-16T04:47:28;100727.91;;;17.25;100.00
31005;BME280;17676;52.254;4.490;2023-07-16T04:49:53;100739.47;;;17.32;100.00
31005;BME280;17676;52.254;4.490;2023-07-16T04:52:18;100733.38;;;17.25;100.00
31005;BME280;17676;52.254;4.490;2023-07-16T04:54:44;100747.03;;;17.25;100.00
31005;BME280;17676;52.254;4.490;2023-07-16T04:57:09;100745.94;;;17.26;100.00
31005;BME280;17676;52.254;4.490;2023-07-16T04:59:35;100754.16;;;17.26;100.00
31005;BME280;17676;52.254;4.490;2023-07-16T05:02:04;100751.38;;;17.21;100.00
31005;BME280;17676;52.254;4.490;2023-07-16T05:04:30;100747.53;;;17.22;100.00
31005;BME280;17676;52.254;4.490;2023-07-16T05:06:55;100752.97;;;17.38;100.00
31005;BME280;17676;52.254;4.490;2023-07-16T05:09:21;100745.75;;;17.49;100.00
31005;BME280;17676;52.254;4.490;2023-07-16T05:11:46;100739.81;;;17.57;100.00
31005;BME280;17676;52.254;4.490;2023-07-16T05:14:12;100737.63;;;17.59;100.00
31005;BME280;17676;52.254;4.490;2023-07-16T05:16:37;100744.44;;;17.56;100.00
31005;BME280;17676;52.254;4.490;2023-07-16T05:19:03;100739.91;;;17.67;100.00
31005;BME280;17676;52.254;4.490;2023-07-16T05:21:28;100746.72;;;17.64;100.00
31005;BME280;17676;52.254;4.490;2023-07-16T05:23:53;100732.31;;;17.47;100.00
31005;BME280;17676;52.254;4.490;2023-07-16T05:26:19;100755.72;;;17.60;100.00
31005;BME280;17676;52.254;4.490;2023-07-16T05:28:44;100748.78;;;17.52;100.00
31005;BME280;17676;52.254;4.490;2023-07-16T05:31:10;100757.56;;;17.54;100.00
31005;BME280;17676;52.254;4.490;2023-07-16T05:33:35;100740.50;;;17.69;100.00
31005;BME280;17676;52.254;4.490;2023-07-16T05:36:01;100755.41;;;17.83;100.00
31005;BME280;17676;52.254;4.490;2023-07-16T05:38:26;100751.78;;;17.77;100.00
31005;BME280;17676;52.254;4.490;2023-07-16T05:40:52;100755.00;;;17.69;100.00
31005;BME280;17676;52.254;4.490;2023-07-16T05:43:17;100756.47;;;17.77;100.00
31005;BME280;17676;52.254;4.490;2023-07-16T05:45:42;100757.59;;;17.81;100.00
31005;BME280;17676;52.254;4.490;2023-07-16T05:48:08;100753.06;;;17.91;100.00
31005;BME280;17676;52.254;4.490;2023-07-16T05:50:33;100751.75;;;17.99;100.00
31005;BME280;17676;52.254;4.490;2023-07-16T05:52:58;100760.13;;;18.14;100.00
31005;BME280;17676;52.254;4.490;2023-07-16T05:55:24;100750.19;;;18.08;100.00
31005;BME280;17676;52.254;4.490;2023-07-16T05:57:50;100767.91;;;18.27;100.00
31005;BME280;17676;52.254;4.490;2023-07-16T06:00:16;100758.00;;;18.47;100.00
31005;BME280;17676;52.254;4.490;2023-07-16T06:02:42;100761.06;;;18.56;100.00
31005;BME280;17676;52.254;4.490;2023-07-16T06:05:08;100758.03;;;18.52;100.00
31005;BME280;17676;52.254;4.490;2023-07-16T06:07:33;100762.50;;;18.63;100.00
31005;BME280;17676;52.254;4.490;2023-07-16T06:09:59;100770.00;;;18.78;100.00
31005;BME280;17676;52.254;4.490;2023-07-16T06:12:24;100770.66;;;18.95;100.00
31005;BME280;17676;52.254;4.490;2023-07-16T06:14:49;100777.16;;;18.84;100.00
31005;BME280;17676;52.254;4.490;2023-07-16T06:17:15;100794.34;;;18.69;100.00
31005;BME280;17676;52.254;4.490;2023-07-16T06:19:40;100784.66;;;18.57;100.00
31005;BME280;17676;52.254;4.490;2023-07-16T06:22:06;100781.13;;;18.61;100.00
31005;BME280;17676;52.254;4.490;2023-07-16T06:24:34;100782.03;;;18.72;100.00
31005;BME280;17676;52.254;4.490;2023-07-16T06:26:59;100797.34;;;18.68;100.00
31005;BME280;17676;52.254;4.490;2023-07-16T06:29:24;100788.81;;;18.64;100.00
31005;BME280;17676;52.254;4.490;2023-07-16T06:31:57;100793.53;;;18.69;100.00
31005;BME280;17676;52.254;4.490;2023-07-16T06:34:24;100783.53;;;18.89;100.00
31005;BME280;17676;52.254;4.490;2023-07-16T06:36:49;100787.97;;;18.95;100.00
31005;BME280;17676;52.254;4.490;2023-07-16T06:39:15;100806.31;;;18.90;100.00
31005;BME280;17676;52.254;4.490;2023-07-16T06:41:40;100805.31;;;19.06;100.00
31005;BME280;17676;52.254;4.490;2023-07-16T06:44:06;100808.94;;;19.16;100.00
31005;BME280;17676;52.254;4.490;2023-07-16T06:46:31;100816.94;;;19.23;100.00
31005;BME280;17676;52.254;4.490;2023-07-16T06:48:56;100817.41;;;19.10;100.00
31005;BME280;17676;52.254;4.490;2023-07-16T06:51:22;100812.34;;;18.92;100.00
31005;BME280;17676;52.254;4.490;2023-07-16T06:53:48;100823.44;;;19.54;100.00
31005;BME280;17676;52.254;4.490;2023-07-16T06:56:14;100821.19;;;20.02;100.00
31005;BME280;17676;52.254;4.490;2023-07-16T06:58:40;100818.00;;;20.55;100.00
31005;BME280;17676;52.254;4.490;2023-07-16T07:01:05;100824.03;;;21.17;100.00
31005;BME280;17676;52.254;4.490;2023-07-16T07:03:31;100827.88;;;20.66;100.00
31005;BME280;17676;52.254;4.490;2023-07-16T07:06:02;100836.47;;;19.78;100.00
31005;BME280;17676;52.254;4.490;2023-07-16T07:08:28;100842.91;;;19.42;100.00
31005;BME280;17676;52.254;4.490;2023-07-16T07:10:54;100841.28;;;19.09;100.00
31005;BME280;17676;52.254;4.490;2023-07-16T07:13:19;100839.59;;;19.03;100.00
31005;BME280;17676;52.254;4.490;2023-07-16T07:15:45;100845.50;;;19.22;100.00
31005;BME280;17676;52.254;4.490;2023-07-16T07:18:10;100845.16;;;19.55;100.00
31005;BME280;17676;52.254;4.490;2023-07-16T07:20:36;100858.13;;;20.66;100.00
31005;BME280;17676;52.254;4.490;2023-07-16T07:23:01;100841.34;;;21.28;100.00
31005;BME280;17676;52.254;4.490;2023-07-16T07:25:28;100847.41;;;21.35;100.00
31005;BME280;17676;52.254;4.490;2023-07-16T07:27:54;100848.44;;;21.59;100.00
31005;BME280;17676;52.254;4.490;2023-07-16T07:30:19;100837.28;;;20.95;100.00
31005;BME280;17676;52.254;4.490;2023-07-16T07:32:45;100850.47;;;20.63;100.00
31005;BME280;17676;52.254;4.490;2023-07-16T07:35:10;100856.16;;;20.27;100.00
31005;BME280;17676;52.254;4.490;2023-07-16T07:37:36;100870.66;;;20.02;100.00
31005;BME280;17676;52.254;4.490;2023-07-16T07:40:02;100866.22;;;19.96;100.00
31005;BME280;17676;52.254;4.490;2023-07-16T07:42:28;100885.88;;;20.25;100.00
31005;BME280;17676;52.254;4.490;2023-07-16T07:44:54;100876.25;;;20.22;100.00
31005;BME280;17676;52.254;4.490;2023-07-16T07:47:20;100888.16;;;19.86;100.00
31005;BME280;17676;52.254;4.490;2023-07-16T07:49:45;100891.06;;;19.65;100.00
31005;BME280;17676;52.254;4.490;2023-07-16T07:52:11;100888.00;;;19.61;100.00
31005;BME280;17676;52.254;4.490;2023-07-16T07:54:36;100892.44;;;19.62;100.00
31005;BME280;17676;52.254;4.490;2023-07-16T07:57:02;100892.28;;;19.84;100.00
31005;BME280;17676;52.254;4.490;2023-07-16T07:59:29;100883.63;;;19.65;100.00
31005;BME280;17676;52.254;4.490;2023-07-16T08:01:55;100894.06;;;20.20;100.00
31005;BME280;17676;52.254;4.490;2023-07-16T08:04:20;100905.53;;;20.93;100.00
31005;BME280;17676;52.254;4.490;2023-07-16T08:06:46;100893.09;;;20.76;100.00
31005;BME280;17676;52.254;4.490;2023-07-16T08:09:11;100902.69;;;20.38;100.00
31005;BME280;17676;52.254;4.490;2023-07-16T08:11:37;100910.88;;;20.33;100.00
31005;BME280;17676;52.254;4.490;2023-07-16T08:14:02;100923.50;;;20.14;100.00
31005;BME280;17676;52.254;4.490;2023-07-16T08:16:27;100920.06;;;20.79;100.00
31005;BME280;17676;52.254;4.490;2023-07-16T08:18:53;100935.00;;;22.31;100.00
31005;BME280;17676;52.254;4.490;2023-07-16T08:21:18;100930.44;;;22.65;100.00
31005;BME280;17676;52.254;4.490;2023-07-16T08:23:48;100930.25;;;21.68;100.00
31005;BME280;17676;52.254;4.490;2023-07-16T08:26:14;100933.00;;;21.58;100.00
31005;BME280;17676;52.254;4.490;2023-07-16T08:28:39;100929.44;;;21.48;100.00
31005;BME280;17676;52.254;4.490;2023-07-16T08:31:04;100919.84;;;21.15;100.00
31005;BME280;17676;52.254;4.490;2023-07-16T08:33:30;100937.72;;;21.23;100.00
31005;BME280;17676;52.254;4.490;2023-07-16T08:35:55;100929.75;;;21.31;100.00
31005;BME280;17676;52.254;4.490;2023-07-16T08:38:21;100931.22;;;22.12;100.00
31005;BME280;17676;52.254;4.490;2023-07-16T08:40:47;100920.06;;;22.37;100.00
31005;BME280;17676;52.254;4.490;2023-07-16T08:43:15;100937.16;;;21.71;100.00
31005;BME280;17676;52.254;4.490;2023-07-16T08:45:41;100937.47;;;20.99;100.00
31005;BME280;17676;52.254;4.490;2023-07-16T08:48:11;100950.81;;;20.51;100.00
31005;BME280;17676;52.254;4.490;2023-07-16T08:50:37;100937.41;;;21.69;100.00
31005;BME280;17676;52.254;4.490;2023-07-16T08:55:31;100951.78;;;21.31;100.00
31005;BME280;17676;52.254;4.490;2023-07-16T08:57:57;100942.59;;;20.66;100.00
31005;BME280;17676;52.254;4.490;2023-07-16T09:00:24;100956.56;;;20.39;100.00
31005;BME280;17676;52.254;4.490;2023-07-16T09:02:55;100955.03;;;20.83;100.00
31005;BME280;17676;52.254;4.490;2023-07-16T09:05:21;100969.94;;;21.12;100.00
31005;BME280;17676;52.254;4.490;2023-07-16T09:07:47;100959.84;;;20.31;100.00
31005;BME280;17676;52.254;4.490;2023-07-16T09:10:12;100974.31;;;20.93;100.00
31005;BME280;17676;52.254;4.490;2023-07-16T09:12:58;100959.47;;;21.59;100.00
31005;BME280;17676;52.254;4.490;2023-07-16T09:15:24;100951.75;;;22.45;100.00
31005;BME280;17676;52.254;4.490;2023-07-16T09:17:49;100959.59;;;22.23;100.00
31005;BME280;17676;52.254;4.490;2023-07-16T09:20:16;100948.88;;;22.16;100.00
31005;BME280;17676;52.254;4.490;2023-07-16T09:22:43;100967.09;;;22.02;100.00
31005;BME280;17676;52.254;4.490;2023-07-16T09:25:08;100970.19;;;22.59;100.00
31005;BME280;17676;52.254;4.490;2023-07-16T09:27:34;100967.91;;;23.48;100.00
31005;BME280;17676;52.254;4.490;2023-07-16T09:29:59;100957.25;;;23.66;100.00
31005;BME280;17676;52.254;4.490;2023-07-16T09:32:34;100955.56;;;23.70;100.00
31005;BME280;17676;52.254;4.490;2023-07-16T09:35:00;100979.91;;;23.96;100.00
31005;BME280;17676;52.254;4.490;2023-07-16T09:37:26;100982.22;;;23.22;100.00
31005;BME280;17676;52.254;4.490;2023-07-16T09:39:51;100973.41;;;23.54;100.00
31005;BME280;17676;52.254;4.490;2023-07-16T09:42:17;100975.84;;;23.26;100.00
31005;BME280;17676;52.254;4.490;2023-07-16T09:44:44;100981.19;;;22.69;100.00
31005;BME280;17676;52.254;4.490;2023-07-16T09:47:09;101016.19;;;22.00;100.00
31005;BME280;17676;52.254;4.490;2023-07-16T09:49:35;101002.09;;;22.12;100.00
31005;BME280;17676;52.254;4.490;2023-07-16T09:52:01;101000.47;;;22.01;100.00
31005;BME280;17676;52.254;4.490;2023-07-16T09:54:31;100999.88;;;22.09;100.00
31005;BME280;17676;52.254;4.490;2023-07-16T09:56:58;101006.06;;;22.64;100.00
31005;BME280;17676;52.254;4.490;2023-07-16T09:59:28;100996.16;;;23.46;100.00
31005;BME280;17676;52.254;4.490;2023-07-16T10:01:55;101013.03;;;22.95;100.00
31005;BME280;17676;52.254;4.490;2023-07-16T10:04:21;101020.50;;;22.36;100.00
31005;BME280;17676;52.254;4.490;2023-07-16T10:06:58;101003.38;;;22.44;100.00
31005;BME280;17676;52.254;4.490;2023-07-16T10:12:15;101027.06;;;23.48;100.00
31005;BME280;17676;52.254;4.490;2023-07-16T10:14:45;101007.22;;;22.43;100.00
31005;BME280;17676;52.254;4.490;2023-07-16T10:17:23;101025.03;;;21.87;100.00
31005;BME280;17676;52.254;4.490;2023-07-16T10:20:02;101032.75;;;21.35;100.00
31005;BME280;17676;52.254;4.490;2023-07-16T10:22:41;101027.25;;;21.80;100.00
31005;BME280;17676;52.254;4.490;2023-07-16T10:27:50;101038.53;;;23.65;100.00
31005;BME280;17676;52.254;4.490;2023-07-16T10:30:16;101033.16;;;23.44;100.00
31005;BME280;17676;52.254;4.490;2023-07-16T10:32:42;101028.28;;;22.88;100.00
31005;BME280;17676;52.254;4.490;2023-07-16T10:35:09;101029.38;;;23.35;100.00
31005;BME280;17676;52.254;4.490;2023-07-16T10:37:35;101037.50;;;22.68;100.00
31005;BME280;17676;52.254;4.490;2023-07-16T10:40:01;101059.75;;;21.98;100.00
31005;BME280;17676;52.254;4.490;2023-07-16T10:42:31;101050.91;;;21.26;100.00
31005;BME280;17676;52.254;4.490;2023-07-16T10:45:01;101056.16;;;21.63;100.00
31005;BME280;17676;52.254;4.490;2023-07-16T10:49:58;101082.94;;;22.91;100.00
31005;BME280;17676;52.254;4.490;2023-07-16T10:52:24;101058.41;;;23.67;100.00
31005;BME280;17676;52.254;4.490;2023-07-16T10:54:50;101103.56;;;23.03;100.00
31005;BME280;17676;52.254;4.490;2023-07-16T10:57:20;101077.31;;;23.55;100.00
31005;BME280;17676;52.254;4.490;2023-07-16T10:59:45;101068.03;;;23.74;100.00
31005;BME280;17676;52.254;4.490;2023-07-16T11:02:15;101093.25;;;23.68;100.00
31005;BME280;17676;52.254;4.490;2023-07-16T11:04:43;101071.94;;;23.34;100.00
31005;BME280;17676;52.254;4.490;2023-07-16T11:07:09;101067.59;;;23.18;100.00
31005;BME280;17676;52.254;4.490;2023-07-16T11:09:55;101086.00;;;22.89;100.00
31005;BME280;17676;52.254;4.490;2023-07-16T11:12:22;101082.84;;;22.37;100.00
31005;BME280;17676;52.254;4.490;2023-07-16T11:14:50;101085.63;;;22.22;100.00
31005;BME280;17676;52.254;4.490;2023-07-16T11:17:16;101092.19;;;22.61;100.00
31005;BME280;17676;52.254;4.490;2023-07-16T11:19:45;101098.63;;;22.07;100.00
31005;BME280;17676;52.254;4.490;2023-07-16T11:22:11;101084.56;;;21.78;100.00
31005;BME280;17676;52.254;4.490;2023-07-16T11:24:44;101078.53;;;21.71;100.00
31005;BME280;17676;52.254;4.490;2023-07-16T11:27:14;101106.06;;;22.01;100.00
31005;BME280;17676;52.254;4.490;2023-07-16T11:29:54;101092.50;;;22.25;100.00
31005;BME280;17676;52.254;4.490;2023-07-16T11:32:32;101102.75;;;22.14;100.00
31005;BME280;17676;52.254;4.490;2023-07-16T11:34:59;101104.41;;;21.70;100.00
31005;BME280;17676;52.254;4.490;2023-07-16T11:37:25;101104.41;;;22.10;100.00
31005;BME280;17676;52.254;4.490;2023-07-16T11:39:55;101095.53;;;22.38;100.00
31005;BME280;17676;52.254;4.490;2023-07-16T11:42:30;101115.31;;;22.70;100.00
31005;BME280;17676;52.254;4.490;2023-07-16T11:44:56;101103.25;;;22.46;100.00
31005;BME280;17676;52.254;4.490;2023-07-16T11:47:22;101112.84;;;22.69;100.00
31005;BME280;17676;52.254;4.490;2023-07-16T11:49:48;101120.22;;;22.83;100.00
31005;BME280;17676;52.254;4.490;2023-07-16T11:52:14;101124.47;;;23.19;100.00
31005;BME280;17676;52.254;4.490;2023-07-16T11:54:39;101130.59;;;23.11;100.00
31005;BME280;17676;52.254;4.490;2023-07-16T11:57:05;101110.03;;;22.84;100.00
31005;BME280;17676;52.254;4.490;2023-07-16T11:59:31;101123.34;;;23.30;100.00
31005;BME280;17676;52.254;4.490;2023-07-16T12:01:56;101123.97;;;23.61;100.00
31005;BME280;17676;52.254;4.490;2023-07-16T12:04:22;101146.66;;;23.97;100.00
31005;BME280;17676;52.254;4.490;2023-07-16T12:06:48;101128.50;;;23.86;100.00
31005;BME280;17676;52.254;4.490;2023-07-16T12:09:13;101138.22;;;23.78;100.00
31005;BME280;17676;52.254;4.490;2023-07-16T12:11:39;101142.38;;;23.76;100.00
31005;BME280;17676;52.254;4.490;2023-07-16T12:14:05;101140.19;;;23.73;100.00
31005;BME280;17676;52.254;4.490;2023-07-16T12:16:31;101145.38;;;23.46;100.00
31005;BME280;17676;52.254;4.490;2023-07-16T12:18:56;101129.91;;;23.78;100.00
31005;BME280;17676;52.254;4.490;2023-07-16T12:21:22;101140.03;;;23.59;100.00
31005;BME280;17676;52.254;4.490;2023-07-16T12:23:47;101151.09;;;22.95;100.00
31005;BME280;17676;52.254;4.490;2023-07-16T12:26:13;101140.06;;;23.00;100.00
31005;BME280;17676;52.254;4.490;2023-07-16T12:28:39;101142.84;;;22.90;100.00
31005;BME280;17676;52.254;4.490;2023-07-16T12:31:07;101143.19;;;22.74;100.00
31005;BME280;17676;52.254;4.490;2023-07-16T12:33:33;101153.78;;;23.20;100.00
31005;BME280;17676;52.254;4.490;2023-07-16T12:35:58;101162.63;;;23.12;100.00
31005;BME280;17676;52.254;4.490;2023-07-16T12:38:23;101171.03;;;22.92;100.00
31005;BME280;17676;52.254;4.490;2023-07-16T12:40:49;101173.59;;;22.64;100.00
31005;BME280;17676;52.254;4.490;2023-07-16T12:43:14;101161.19;;;22.31;100.00
31005;BME280;17676;52.254;4.490;2023-07-16T12:45:39;101172.78;;;22.33;100.00
31005;BME280;17676;52.254;4.490;2023-07-16T12:48:05;101171.97;;;22.18;100.00
31005;BME280;17676;52.254;4.490;2023-07-16T12:50:30;101179.97;;;22.24;100.00
31005;BME280;17676;52.254;4.490;2023-07-16T12:52:56;101173.31;;;21.95;100.00